createdAt,value
2024-01-20T00:00:16.748Z,100154.53
2024-01-20T00:03:04.528Z,100147.92
2024-01-20T00:05:32.353Z,100151.04
2024-01-20T00:08:00.236Z,100148.54
2024-01-20T00:10:28.375Z,100148.61
2024-01-20T00:12:55.892Z,100148.52
2024-01-20T00:15:23.965Z,100153.50
2024-01-20T00:17:51.818Z,100151.82
2024-01-20T00:20:19.912Z,100150.32
2024-01-20T00:22:47.712Z,100153.58
2024-01-20T00:25:15.485Z,100157.67
2024-01-20T00:27:43.044Z,100153.08
2024-01-20T00:30:11.859Z,100155.12
2024-01-20T00:32:39.774Z,100154.98
2024-01-20T00:35:08.824Z,100164.77
2024-01-20T00:37:39.482Z,100160.02
2024-01-20T00:40:08.600Z,100154.09
2024-01-20T00:42:36.298Z,100156.84
2024-01-20T00:45:05.624Z,100158.45
2024-01-20T00:47:35.844Z,100160.04
2024-01-20T00:50:06.062Z,100155.84
2024-01-20T00:52:33.661Z,100154.73
2024-01-20T00:55:01.492Z,100152.77
2024-01-20T00:57:29.189Z,100152.70
2024-01-20T00:59:57.501Z,100161.34
2024-01-20T01:02:26.119Z,100160.58
2024-01-20T01:04:53.764Z,100159.63
2024-01-20T01:07:21.618Z,100165.67
2024-01-20T01:09:49.585Z,100161.63
2024-01-20T01:12:17.308Z,100158.62
2024-01-20T01:14:44.944Z,100153.90
2024-01-20T01:17:12.590Z,100162.47
2024-01-20T01:19:40.432Z,100164.77
2024-01-20T01:22:07.997Z,100156.84
2024-01-20T01:24:35.552Z,100156.39
2024-01-20T01:27:03.202Z,100162.77
2024-01-20T01:29:30.932Z,100157.33
2024-01-20T01:31:58.852Z,100161.11
2024-01-20T01:34:27.448Z,100154.46
2024-01-20T01:36:55.867Z,100154.10
2024-01-20T01:39:23.377Z,100158.23
2024-01-20T01:41:50.967Z,100158.27
2024-01-20T01:44:18.462Z,100155.88
2024-01-20T01:46:46.675Z,100152.33
2024-01-20T01:49:14.703Z,100152.54
2024-01-20T01:51:42.275Z,100151.36
2024-01-20T01:54:12.970Z,100152.92
2024-01-20T01:56:42.919Z,100146.12
2024-01-20T01:59:10.828Z,100154.31
2024-01-20T02:01:38.393Z,100153.98
2024-01-20T02:04:06.212Z,100163.55
2024-01-20T02:06:33.805Z,100163.05
2024-01-20T02:09:01.711Z,100176.21
2024-01-20T02:11:29.297Z,100166.50
2024-01-20T02:13:57.009Z,100165.84
2024-01-20T02:16:24.685Z,100164.48
2024-01-20T02:18:52.204Z,100163.59
2024-01-20T02:21:19.865Z,100163.88
2024-01-20T02:23:50.180Z,100178.01
2024-01-20T02:26:17.752Z,100166.54
2024-01-20T02:28:45.253Z,100166.70
2024-01-20T02:31:13.151Z,100165.48
2024-01-20T02:33:40.759Z,100165.13
2024-01-20T02:36:08.429Z,100160.34
2024-01-20T02:38:36.011Z,100165.31
2024-01-20T02:41:03.804Z,100153.39
2024-01-20T02:43:31.760Z,100167.74
2024-01-20T02:45:59.347Z,100168.77
2024-01-20T02:48:27.193Z,100160.05
2024-01-20T02:50:54.946Z,100157.99
2024-01-20T02:53:22.532Z,100156.92
2024-01-20T02:55:50.112Z,100157.05
2024-01-20T02:58:17.773Z,100154.27
2024-01-20T03:00:45.474Z,100147.89
2024-01-20T03:03:13.119Z,100145.95
2024-01-20T03:05:41.016Z,100146.23
2024-01-20T03:08:08.780Z,100142.91
2024-01-20T03:10:36.292Z,100139.56
2024-01-20T03:13:04.080Z,100136.08
2024-01-20T03:15:32.024Z,100137.73
2024-01-20T03:17:59.642Z,100138.21
2024-01-20T03:20:27.281Z,100133.22
2024-01-20T03:22:54.796Z,100133.51
2024-01-20T03:25:22.374Z,100130.77
2024-01-20T03:27:49.863Z,100130.25
2024-01-20T03:30:17.515Z,100124.80
2024-01-20T03:32:45.158Z,100125.46
2024-01-20T03:35:12.754Z,100126.78
2024-01-20T03:37:40.800Z,100122.53
2024-01-20T03:40:09.486Z,100116.39
2024-01-20T03:42:37.089Z,100118.98
2024-01-20T03:45:05.107Z,100115.74
2024-01-20T03:47:34.215Z,100111.47
2024-01-20T03:50:04.957Z,100112.19
2024-01-20T03:52:32.618Z,100110.15
2024-01-20T03:55:00.183Z,100115.81
2024-01-20T03:57:27.840Z,100112.23
2024-01-20T03:59:55.424Z,100109.63
2024-01-20T04:02:22.956Z,100109.74
2024-01-20T04:04:50.533Z,100109.85
2024-01-20T04:07:18.074Z,100108.41
2024-01-20T04:09:45.654Z,100112.60
2024-01-20T04:12:13.271Z,100114.42
2024-01-20T04:14:40.757Z,100114.73
2024-01-20T04:17:08.295Z,100118.27
2024-01-20T04:19:35.883Z,100120.98
2024-01-20T04:22:03.573Z,100133.93
2024-01-20T04:24:31.155Z,100137.67
2024-01-20T04:26:58.715Z,100148.40
2024-01-20T04:29:26.229Z,100139.89
2024-01-20T04:31:53.862Z,100129.98
2024-01-20T04:34:21.557Z,100131.91
2024-01-20T04:36:49.438Z,100144.58
2024-01-20T04:39:17.009Z,100158.31
2024-01-20T04:41:44.594Z,100152.41
2024-01-20T04:44:12.346Z,100141.92
2024-01-20T04:46:39.877Z,100144.89
2024-01-20T04:49:08.246Z,100148.20
2024-01-20T04:51:36.057Z,100144.69
2024-01-20T04:54:03.738Z,100138.94
2024-01-20T04:56:31.343Z,100140.38
2024-01-20T04:58:58.893Z,100144.37
2024-01-20T05:01:26.450Z,100146.98
2024-01-20T05:03:54.205Z,100137.62
2024-01-20T05:06:22.005Z,100143.81
2024-01-20T05:08:49.763Z,100147.43
2024-01-20T05:11:17.310Z,100141.46
2024-01-20T05:13:44.956Z,100145.25
2024-01-20T05:16:12.692Z,100141.70
2024-01-20T05:18:40.915Z,100148.21
2024-01-20T05:21:14.098Z,100152.52
2024-01-20T05:23:41.945Z,100151.67
2024-01-20T05:26:09.465Z,100152.73
2024-01-20T05:28:36.969Z,100164.55
2024-01-20T05:31:04.722Z,100159.81
2024-01-20T05:33:32.337Z,100156.91
2024-01-20T05:36:00.252Z,100151.99
2024-01-20T05:38:27.807Z,100155.96
2024-01-20T05:40:57.154Z,100151.21
2024-01-20T05:43:24.693Z,100153.62
2024-01-20T05:45:52.215Z,100146.63
2024-01-20T05:48:19.819Z,100147.69
2024-01-20T05:50:48.435Z,100145.29
2024-01-20T05:53:19.220Z,100154.21
2024-01-20T05:55:46.736Z,100143.66
2024-01-20T05:58:15.460Z,100138.71
2024-01-20T06:00:43.166Z,100143.33
2024-01-20T06:03:10.817Z,100151.35
2024-01-20T06:05:38.451Z,100151.36
2024-01-20T06:08:06.285Z,100159.21
2024-01-20T06:10:33.829Z,100151.35
2024-01-20T06:13:01.368Z,100154.91
2024-01-20T06:15:29.014Z,100149.73
2024-01-20T06:17:56.560Z,100156.89
2024-01-20T06:20:24.299Z,100160.77
2024-01-20T06:22:51.885Z,100162.11
2024-01-20T06:25:19.452Z,100163.31
2024-01-20T06:27:47.037Z,100156.80
2024-01-20T06:30:14.824Z,100156.93
2024-01-20T06:32:42.411Z,100162.20
2024-01-20T06:35:10.322Z,100164.75
2024-01-20T06:37:37.870Z,100158.60
2024-01-20T06:40:05.998Z,100165.08
2024-01-20T06:42:33.621Z,100164.89
2024-01-20T06:45:01.924Z,100171.03
2024-01-20T06:47:30.827Z,100174.15
2024-01-20T06:49:58.408Z,100170.40
2024-01-20T06:52:25.972Z,100176.40
2024-01-20T06:54:53.561Z,100184.61
2024-01-20T06:57:21.193Z,100187.02
2024-01-20T06:59:48.785Z,100185.34
2024-01-20T07:02:16.726Z,100185.73
2024-01-20T07:04:44.261Z,100190.75
2024-01-20T07:07:12.230Z,100189.60
2024-01-20T07:09:41.170Z,100186.36
2024-01-20T07:12:09.680Z,100198.83
2024-01-20T07:14:37.290Z,100192.71
2024-01-20T07:17:06.202Z,100192.42
2024-01-20T07:19:33.803Z,100186.84
2024-01-20T07:22:01.423Z,100193.39
2024-01-20T07:24:30.255Z,100197.73
2024-01-20T07:26:57.917Z,100192.00
2024-01-20T07:29:26.228Z,100187.63
2024-01-20T07:31:53.854Z,100192.67
2024-01-20T07:34:21.490Z,100193.95
2024-01-20T07:36:49.234Z,100193.16
2024-01-20T07:39:16.905Z,100199.58
2024-01-20T07:41:44.461Z,100203.23
2024-01-20T07:44:12.336Z,100197.44
2024-01-20T07:46:39.944Z,100198.67
2024-01-20T07:49:07.561Z,100200.91
2024-01-20T07:51:35.560Z,100202.83
2024-01-20T07:54:03.410Z,100201.81
2024-01-20T07:56:32.065Z,100214.16
2024-01-20T07:58:59.807Z,100202.23
2024-01-20T08:01:27.428Z,100208.56
2024-01-20T08:03:55.016Z,100216.80
2024-01-20T08:06:22.783Z,100205.04
2024-01-20T08:08:50.623Z,100210.93
2024-01-20T08:11:19.487Z,100205.52
2024-01-20T08:13:48.366Z,100210.73
2024-01-20T08:16:15.885Z,100211.63
2024-01-20T08:18:43.572Z,100217.13
2024-01-20T08:21:11.797Z,100216.10
2024-01-20T08:23:39.323Z,100215.27
2024-01-20T08:26:07.410Z,100218.20
2024-01-20T08:28:35.019Z,100202.83
2024-01-20T08:31:02.632Z,100211.25
2024-01-20T08:33:30.432Z,100214.18
2024-01-20T08:35:58.524Z,100210.78
2024-01-20T08:38:26.098Z,100211.38
2024-01-20T08:40:53.639Z,100220.04
2024-01-20T08:43:21.294Z,100222.94
2024-01-20T08:45:48.822Z,100223.59
2024-01-20T08:48:16.442Z,100221.79
2024-01-20T08:50:44.068Z,100222.66
2024-01-20T08:53:11.627Z,100224.88
2024-01-20T08:55:39.288Z,100230.19
2024-01-20T08:58:06.843Z,100227.94
2024-01-20T09:00:34.368Z,100235.98
2024-01-20T09:03:01.979Z,100234.06
2024-01-20T09:05:37.885Z,100234.54
2024-01-20T09:08:09.186Z,100237.13
2024-01-20T09:10:38.175Z,100245.19
2024-01-20T09:13:05.713Z,100242.99
2024-01-20T09:15:33.358Z,100239.08
2024-01-20T09:18:01.368Z,100234.33
2024-01-20T09:20:29.269Z,100243.06
2024-01-20T09:22:56.993Z,100232.85
2024-01-20T09:25:24.707Z,100232.36
2024-01-20T09:27:52.769Z,100232.92
2024-01-20T09:30:20.387Z,100231.95
2024-01-20T09:32:48.083Z,100232.36
2024-01-20T09:35:15.706Z,100238.48
2024-01-20T09:37:43.623Z,100218.38
2024-01-20T09:40:11.987Z,100232.58
2024-01-20T09:42:40.454Z,100229.10
2024-01-20T09:45:09.451Z,100222.48
2024-01-20T09:47:37.252Z,100219.14
2024-01-20T09:50:06.453Z,100225.70
2024-01-20T09:52:44.368Z,100224.05
2024-01-20T09:55:22.658Z,100221.05
2024-01-20T09:57:51.353Z,100224.88
2024-01-20T10:00:21.093Z,100227.67
2024-01-20T10:02:49.172Z,100230.30
2024-01-20T10:05:17.519Z,100225.69
2024-01-20T10:07:45.155Z,100231.01
2024-01-20T10:10:28.850Z,100223.58
2024-01-20T10:12:56.579Z,100228.95
2024-01-20T10:15:32.758Z,100231.88
2024-01-20T10:18:10.281Z,100227.43
2024-01-20T10:20:38.361Z,100226.38
2024-01-20T10:23:07.373Z,100224.73
2024-01-20T10:25:35.148Z,100224.16
2024-01-20T10:28:02.847Z,100216.66
2024-01-20T10:30:31.313Z,100221.90
2024-01-20T10:33:09.368Z,100219.48
2024-01-20T10:35:39.799Z,100212.30
2024-01-20T10:38:13.547Z,100218.92
2024-01-20T10:40:44.302Z,100200.60
2024-01-20T10:43:17.289Z,100202.67
2024-01-20T10:46:21.833Z,100207.96
2024-01-20T10:48:55.591Z,100214.02
2024-01-20T10:51:30.381Z,100203.98
2024-01-20T10:53:58.601Z,100202.73
2024-01-20T10:56:28.129Z,100210.20
2024-01-20T10:59:18.821Z,100209.48
2024-01-20T11:01:47.075Z,100198.67
2024-01-20T11:04:21.310Z,100212.52
2024-01-20T11:06:49.425Z,100204.11
2024-01-20T11:09:24.077Z,100197.25
2024-01-20T11:12:08.581Z,100200.84
2024-01-20T11:14:37.001Z,100186.95
2024-01-20T11:17:14.799Z,100186.42
2024-01-20T11:19:42.553Z,100185.18
2024-01-20T11:22:32.285Z,100190.48
2024-01-20T11:25:05.681Z,100181.55
2024-01-20T11:27:48.274Z,100184.10
2024-01-20T11:30:30.417Z,100185.61
2024-01-20T11:32:59.745Z,100173.81
2024-01-20T11:35:27.901Z,100184.42
2024-01-20T11:37:56.528Z,100177.55
2024-01-20T11:40:24.881Z,100189.66
2024-01-20T11:42:52.441Z,100183.80
2024-01-20T11:45:20.138Z,100183.39
2024-01-20T11:47:47.700Z,100185.70
2024-01-20T11:50:15.330Z,100188.23
2024-01-20T11:52:42.879Z,100190.40
2024-01-20T11:55:10.503Z,100181.27
2024-01-20T11:57:38.858Z,100189.24
2024-01-20T12:00:09.484Z,100170.84
2024-01-20T12:02:38.115Z,100183.29
2024-01-20T12:05:12.104Z,100178.65
2024-01-20T12:07:43.319Z,100177.81
2024-01-20T12:10:11.004Z,100181.40
2024-01-20T12:12:40.037Z,100184.13
2024-01-20T12:15:08.574Z,100190.13
2024-01-20T12:17:36.598Z,100183.00
2024-01-20T12:20:06.137Z,100176.11
2024-01-20T12:22:33.687Z,100180.66
2024-01-20T12:25:01.166Z,100183.05
2024-01-20T12:27:28.691Z,100187.67
2024-01-20T12:29:56.313Z,100183.73
2024-01-20T12:32:24.638Z,100184.92
2024-01-20T12:34:53.603Z,100187.17
2024-01-20T12:37:21.144Z,100195.44
2024-01-20T12:39:48.695Z,100181.24
2024-01-20T12:42:16.415Z,100196.10
2024-01-20T12:44:44.669Z,100190.61
2024-01-20T12:47:12.153Z,100193.02
2024-01-20T12:49:39.841Z,100186.05
2024-01-20T12:52:07.594Z,100196.67
2024-01-20T12:54:35.276Z,100194.84
2024-01-20T12:57:04.056Z,100213.54
2024-01-20T12:59:32.570Z,100207.07
2024-01-20T13:02:00.941Z,100216.33
2024-01-20T13:04:28.523Z,100226.40
2024-01-20T13:06:56.143Z,100229.13
2024-01-20T13:09:23.820Z,100240.92
2024-01-20T13:11:51.550Z,100223.33
2024-01-20T13:14:19.423Z,100238.23
2024-01-20T13:16:46.995Z,100239.89
2024-01-20T13:19:14.639Z,100238.48
2024-01-20T13:21:42.380Z,100227.00
2024-01-20T13:24:09.958Z,100241.69
2024-01-20T13:26:37.471Z,100243.55
2024-01-20T13:29:05.032Z,100241.17
2024-01-20T13:31:35.626Z,100236.72
2024-01-20T13:34:03.231Z,100244.08
2024-01-20T13:36:31.178Z,100253.35
2024-01-20T13:38:58.699Z,100233.68
2024-01-20T13:41:30.351Z,100223.45
2024-01-20T13:43:58.753Z,100239.73
2024-01-20T13:46:26.374Z,100252.94
2024-01-20T13:48:53.916Z,100257.04
2024-01-20T13:51:23.341Z,100261.34
2024-01-20T13:53:50.937Z,100268.89
2024-01-20T13:56:19.060Z,100274.69
2024-01-20T13:58:46.767Z,100262.70
2024-01-20T14:01:14.271Z,100274.50
2024-01-20T14:03:41.865Z,100284.74
2024-01-20T14:06:09.804Z,100292.44
2024-01-20T14:08:37.402Z,100287.80
2024-01-20T14:11:04.989Z,100297.38
2024-01-20T14:13:32.537Z,100300.61
2024-01-20T14:16:02.859Z,100304.42
2024-01-20T14:18:30.567Z,100306.66
2024-01-20T14:20:58.374Z,100309.75
2024-01-20T14:23:25.859Z,100317.79
2024-01-20T14:25:54.280Z,100316.61
2024-01-20T14:28:21.990Z,100320.59
2024-01-20T14:30:49.735Z,100327.79
2024-01-20T14:33:17.600Z,100339.93
2024-01-20T14:35:45.486Z,100338.21
2024-01-20T14:38:14.927Z,100341.88
2024-01-20T14:40:42.634Z,100338.33
2024-01-20T14:43:10.623Z,100340.27
2024-01-20T14:45:38.339Z,100348.73
2024-01-20T14:48:07.171Z,100348.76
2024-01-20T14:50:34.933Z,100352.05
2024-01-20T14:53:02.885Z,100362.36
2024-01-20T14:55:31.919Z,100365.14
2024-01-20T14:58:00.164Z,100375.58
2024-01-20T15:00:27.770Z,100380.39
2024-01-20T15:02:55.508Z,100389.83
2024-01-20T15:05:23.041Z,100390.70
2024-01-20T15:07:50.568Z,100392.25
2024-01-20T15:10:21.633Z,100409.89
2024-01-20T15:12:50.021Z,100401.68
2024-01-20T15:15:17.889Z,100410.06
2024-01-20T15:17:45.580Z,100413.14
2024-01-20T15:20:13.162Z,100425.14
2024-01-20T15:22:40.874Z,100430.63
2024-01-20T15:25:09.730Z,100422.23
2024-01-20T15:27:38.462Z,100426.85
2024-01-20T15:30:06.907Z,100436.98
2024-01-20T15:32:34.565Z,100443.34
2024-01-20T15:35:02.526Z,100447.96
2024-01-20T15:37:30.050Z,100448.30
2024-01-20T15:39:57.652Z,100461.30
2024-01-20T15:42:25.376Z,100468.63
2024-01-20T15:44:53.242Z,100482.10
2024-01-20T15:47:20.765Z,100486.02
2024-01-20T15:49:48.748Z,100495.27
2024-01-20T15:52:16.562Z,100505.53
2024-01-20T15:54:46.805Z,100509.65
2024-01-20T15:57:14.589Z,100513.61
2024-01-20T15:59:42.107Z,100525.79
2024-01-20T16:02:09.709Z,100524.89
2024-01-20T16:04:37.250Z,100533.27
2024-01-20T16:07:05.651Z,100544.90
2024-01-20T16:09:33.300Z,100545.23
2024-01-20T16:12:03.162Z,100550.34
2024-01-20T16:14:33.619Z,100556.34
2024-01-20T16:17:01.781Z,100562.65
2024-01-20T16:19:29.404Z,100573.08
2024-01-20T16:21:58.428Z,100571.88
2024-01-20T16:24:26.028Z,100581.45
2024-01-20T16:26:53.736Z,100587.25
2024-01-20T16:29:21.316Z,100589.33
2024-01-20T16:31:48.940Z,100596.70
2024-01-20T16:34:16.520Z,100601.52
2024-01-20T16:36:44.452Z,100607.88
2024-01-20T16:39:12.186Z,100612.38
2024-01-20T16:41:39.701Z,100620.31
2024-01-20T16:44:08.262Z,100624.10
2024-01-20T16:46:38.497Z,100624.80
2024-01-20T16:49:06.247Z,100629.64
2024-01-20T16:51:34.113Z,100641.30
2024-01-20T16:54:01.838Z,100649.02
2024-01-20T16:56:29.467Z,100654.33
2024-01-20T16:58:57.724Z,100657.40
2024-01-20T17:01:25.316Z,100656.36
2024-01-20T17:03:53.160Z,100654.98
2024-01-20T17:06:21.383Z,100658.77
2024-01-20T17:08:49.123Z,100664.38
2024-01-20T17:11:17.421Z,100662.49
2024-01-20T17:13:46.037Z,100671.20
2024-01-20T17:16:13.721Z,100679.13
2024-01-20T17:18:41.414Z,100682.05
2024-01-20T17:21:18.083Z,100682.73
2024-01-20T17:23:46.115Z,100685.33
2024-01-20T17:26:27.002Z,100686.38
2024-01-20T17:28:57.565Z,100689.98
2024-01-20T17:31:31.811Z,100700.09
2024-01-20T17:34:05.202Z,100705.56
2024-01-20T17:36:33.597Z,100708.82
2024-01-20T17:39:04.801Z,100720.13
2024-01-20T17:41:33.064Z,100714.98
2024-01-20T17:44:00.724Z,100722.85
2024-01-20T17:46:28.506Z,100728.33
2024-01-20T17:48:56.218Z,100733.80
2024-01-20T17:51:23.894Z,100743.56
2024-01-20T17:53:51.808Z,100746.80
2024-01-20T17:56:19.382Z,100753.80
2024-01-20T17:58:46.861Z,100757.25
2024-01-20T18:01:14.514Z,100764.79
2024-01-20T18:03:42.207Z,100771.46
2024-01-20T18:06:09.969Z,100780.17
2024-01-20T18:08:37.775Z,100783.77
2024-01-20T18:11:05.609Z,100788.22
2024-01-20T18:13:33.258Z,100790.23
2024-01-20T18:16:00.903Z,100797.73
2024-01-20T18:18:28.731Z,100800.30
2024-01-20T18:20:56.759Z,100806.15
2024-01-20T18:23:24.314Z,100809.58
2024-01-20T18:25:52.293Z,100819.82
2024-01-20T18:28:19.812Z,100829.36
2024-01-20T18:30:48.119Z,100840.64
2024-01-20T18:33:15.816Z,100844.05
2024-01-20T18:35:43.417Z,100849.52
2024-01-20T18:38:11.442Z,100856.36
2024-01-20T18:40:39.736Z,100858.25
2024-01-20T18:43:07.800Z,100864.58
2024-01-20T18:45:35.443Z,100870.88
2024-01-20T18:48:03.449Z,100874.95
2024-01-20T18:50:31.299Z,100877.83
2024-01-20T18:52:58.863Z,100884.95
2024-01-20T18:55:26.636Z,100889.02
2024-01-20T18:57:54.169Z,100896.38
2024-01-20T19:00:21.838Z,100903.95
2024-01-20T19:02:49.494Z,100910.34
2024-01-20T19:05:17.085Z,100918.59
2024-01-20T19:07:45.511Z,100931.86
2024-01-20T19:10:14.610Z,100937.25
2024-01-20T19:12:43.856Z,100947.20
2024-01-20T19:15:13.906Z,100950.95
2024-01-20T19:17:41.536Z,100951.23
2024-01-20T19:20:10.663Z,100959.77
2024-01-20T19:22:38.442Z,100969.85
2024-01-20T19:25:07.470Z,100972.43
2024-01-20T19:27:34.990Z,100974.82
2024-01-20T19:30:02.551Z,100974.79
2024-01-20T19:32:30.304Z,100985.85
2024-01-20T19:34:58.065Z,100992.98
2024-01-20T19:37:25.917Z,101000.98
2024-01-20T19:39:54.106Z,101001.13
2024-01-20T19:42:21.812Z,101007.06
2024-01-20T19:44:49.284Z,101012.83
2024-01-20T19:47:16.784Z,101015.55
2024-01-20T19:49:44.486Z,101027.02
2024-01-20T19:52:13.313Z,101026.98
2024-01-20T19:54:41.559Z,101028.65
2024-01-20T19:57:09.320Z,101035.77
2024-01-20T19:59:37.651Z,101045.38
2024-01-20T20:02:05.572Z,101050.11
2024-01-20T20:04:33.268Z,101056.23
2024-01-20T20:07:05.372Z,101061.31
2024-01-20T20:09:32.922Z,101063.19
2024-01-20T20:12:00.553Z,101069.69
2024-01-20T20:14:28.147Z,101071.59
2024-01-20T20:16:55.694Z,101075.56
2024-01-20T20:19:23.295Z,101075.28
2024-01-20T20:21:50.904Z,101079.05
2024-01-20T20:24:18.997Z,101081.65
2024-01-20T20:26:46.520Z,101085.91
2024-01-20T20:29:14.601Z,101089.33
2024-01-20T20:31:42.568Z,101091.22
2024-01-20T20:34:10.290Z,101095.34
2024-01-20T20:36:40.656Z,101103.09
2024-01-20T20:39:08.786Z,101105.83
2024-01-20T20:41:36.429Z,101108.20
2024-01-20T20:44:04.900Z,101112.98
2024-01-20T20:46:34.847Z,101116.23
2024-01-20T20:49:04.450Z,101116.90
2024-01-20T20:51:32.285Z,101119.83
2024-01-20T20:53:59.833Z,101125.98
2024-01-20T20:56:27.464Z,101127.05
2024-01-20T20:58:54.987Z,101133.58
2024-01-20T21:01:22.587Z,101139.75
2024-01-20T21:03:50.349Z,101144.56
2024-01-20T21:06:18.015Z,101148.17
2024-01-20T21:08:45.579Z,101154.70
2024-01-20T21:11:13.172Z,101157.10
2024-01-20T21:13:41.301Z,101158.26
2024-01-20T21:16:08.860Z,101162.14
2024-01-20T21:18:36.605Z,101163.13
2024-01-20T21:21:05.427Z,101166.75
2024-01-20T21:23:33.664Z,101168.11
2024-01-20T21:26:01.270Z,101172.73
2024-01-20T21:28:28.799Z,101177.23
2024-01-20T21:30:56.322Z,101182.02
2024-01-20T21:33:24.087Z,101186.33
2024-01-20T21:35:51.678Z,101188.50
2024-01-20T21:38:19.643Z,101193.20
2024-01-20T21:40:47.907Z,101200.67
2024-01-20T21:43:15.633Z,101203.04
2024-01-20T21:45:45.204Z,101208.83
2024-01-20T21:48:13.599Z,101209.04
2024-01-20T21:50:42.053Z,101214.58
2024-01-20T21:53:09.608Z,101220.25
2024-01-20T21:55:37.210Z,101222.56
2024-01-20T21:58:04.926Z,101224.75
2024-01-20T22:00:32.474Z,101223.63
2024-01-20T22:03:00.207Z,101219.58
2024-01-20T22:05:28.222Z,101217.69
2024-01-20T22:07:59.867Z,101217.33
2024-01-20T22:10:31.210Z,101221.60
2024-01-20T22:12:59.138Z,101223.46
2024-01-20T22:15:27.286Z,101220.66
2024-01-20T22:17:54.848Z,101228.21
2024-01-20T22:20:22.434Z,101235.40
2024-01-20T22:22:49.874Z,101237.33
2024-01-20T22:25:17.432Z,101244.91
2024-01-20T22:27:45.451Z,101244.25
2024-01-20T22:30:13.589Z,101248.89
2024-01-20T22:32:41.226Z,101252.84
2024-01-20T22:35:08.945Z,101260.29
2024-01-20T22:37:36.706Z,101267.21
2024-01-20T22:40:05.090Z,101269.83
2024-01-20T22:42:32.714Z,101274.05
2024-01-20T22:45:00.395Z,101277.17
2024-01-20T22:47:27.981Z,101281.73
2024-01-20T22:49:55.588Z,101291.73
2024-01-20T22:52:23.041Z,101295.25
2024-01-20T22:54:52.192Z,101298.33
2024-01-20T22:57:20.260Z,101301.09
2024-01-20T22:59:48.026Z,101303.86
2024-01-20T23:02:16.065Z,101303.90
2024-01-20T23:04:43.812Z,101308.20
2024-01-20T23:07:11.431Z,101311.44
2024-01-20T23:09:39.104Z,101316.73
2024-01-20T23:12:07.040Z,101323.29
2024-01-20T23:14:36.617Z,101332.03
2024-01-20T23:17:04.723Z,101336.71
2024-01-20T23:19:32.284Z,101341.50
2024-01-20T23:21:59.835Z,101347.63
2024-01-20T23:24:27.342Z,101345.27
2024-01-20T23:26:54.816Z,101352.53
2024-01-20T23:29:22.242Z,101348.02
2024-01-20T23:31:49.854Z,101349.25
2024-01-20T23:34:17.573Z,101355.52
2024-01-20T23:36:45.249Z,101358.82
2024-01-20T23:39:14.646Z,101362.04
2024-01-20T23:41:42.200Z,101361.77
2024-01-20T23:44:11.166Z,101364.00
2024-01-20T23:46:38.693Z,101365.65
2024-01-20T23:49:06.334Z,101366.13
2024-01-20T23:51:34.442Z,101369.38
2024-01-20T23:54:01.972Z,101376.09
2024-01-20T23:56:29.456Z,101373.21
2024-01-20T23:58:58.448Z,101374.45
